Time;durP1;ratioP1;P1;durP2;ratioP2;P2;SDS_P1;SDS_P2;PMS_P1;PMS_P2;Temp;Humidity;BMP_temperature;BMP_pressure;BME280_temperature;BME280_humidity;BME280_pressure;Samples;Min_cycle;Max_cycle;Signal;HPM_P1;HPM_P2
2022/09/17 00:01:22;;;;;;;7.15;3.20;;;;;;;;;;6068904;23;20441;-78
2022/09/17 00:03:47;;;;;;;;;;;;;;;;;;6068290;23;20050;-77
2022/09/17 00:06:13;;;;;;;6.13;3.08;;;;;;;;;;6069055;23;19945;-78
2022/09/17 00:08:38;;;;;;;;;;;;;;;;;;6070269;23;20010;-77
2022/09/17 00:11:07;;;;;;;6.20;2.83;;;;;;;;;;6068707;23;19905;-78
2022/09/17 00:13:33;;;;;;;4.68;3.15;;;;;;;;;;6069170;23;20098;-78
2022/09/17 00:15:58;;;;;;;;;;;;;;;;;;6069735;23;20030;-77
2022/09/17 00:18:24;;;;;;;4.82;2.70;;;;;;;;;;6069036;23;19909;-80
2022/09/17 00:20:49;;;;;;;;;;;;;;;;;;6069374;23;20007;-77
2022/09/17 00:23:15;;;;;;;6.13;3.00;;;;;;;;;;6069445;23;19965;-78
2022/09/17 00:25:40;;;;;;;;;;;;;;;;;;6067046;23;20007;-78
2022/09/17 00:28:05;;;;;;;10.50;3.25;;;;;;;;;;6068530;23;19921;-78
2022/09/17 00:30:31;;;;;;;;;;;;;;;;;;6067288;23;20103;-78
2022/09/17 00:33:21;;;;;;;4.93;3.00;;;;;;;;;;6068580;23;19957;-78
2022/09/17 00:35:56;;;;;;;8.68;3.42;;;;;;;;;;6068859;23;20017;-79
2022/09/17 00:38:22;;;;;;;8.38;3.03;;;;;;;;;;6043603;23;20019;-79
2022/09/17 00:40:47;;;;;;;;;;;;;;;;;;6044142;23;20326;-77
2022/09/17 00:43:12;;;;;;;4.43;2.90;;;;;;;;;;6091320;23;19921;-77
2022/09/17 00:45:38;;;;;;;;;;;;;;;;;;6069836;23;20510;-77
2022/09/17 00:48:04;;;;;;;6.22;2.97;;;;;;;;;;6068507;23;19973;-78
2022/09/17 00:50:34;;;;;;;4.40;3.00;;;;;;;;;;6068704;23;20009;-78
2022/09/17 00:53:06;;;;;;;4.63;2.75;;;;;;;;;;6067520;23;20081;-77
2022/09/17 00:55:50;;;;;;;4.20;3.17;;;;;;;;;;6068528;23;20336;-77
2022/09/17 00:58:16;;;;;;;5.10;2.75;;;;;;;;;;6068285;23;20014;-77
2022/09/17 01:00:41;;;;;;;;;;;;;;;;;;6067407;23;20003;-77
2022/09/17 01:03:06;;;;;;;4.88;2.60;;;;;;;;;;6068340;23;19916;-79
2022/09/17 01:05:32;;;;;;;;;;;;;;;;;;6068995;23;20447;-77
2022/09/17 01:08:13;;;;;;;5.85;2.90;;;;;;;;;;6068468;23;19913;-78
2022/09/17 01:10:41;;;;;;;6.18;2.90;;;;;;;;;;6068056;23;20013;-78
2022/09/17 01:13:10;;;;;;;7.55;3.38;;;;;;;;;;6068301;23;19999;-78
2022/09/17 01:15:47;;;;;;;6.22;2.80;;;;;;;;;;6066716;23;20011;-77
2022/09/17 01:18:21;;;;;;;7.05;2.90;;;;;;;;;;6090723;23;20019;-78
2022/09/17 01:20:50;;;;;;;4.25;2.90;;;;;;;;;;6066698;23;20015;-78
2022/09/17 01:23:30;;;;;;;6.40;3.00;;;;;;;;;;6066865;23;20002;-78
2022/09/17 01:26:15;;;;;;;4.35;3.20;;;;;;;;;;6067998;23;20015;-79
2022/09/17 01:28:43;;;;;;;5.53;3.35;;;;;;;;;;6067882;23;20027;-78
2022/09/17 01:31:27;;;;;;;6.55;3.88;;;;;;;;;;6066415;23;20021;-78
2022/09/17 01:34:05;;;;;;;7.38;3.88;;;;;;;;;;6067706;23;20007;-79
2022/09/17 01:36:49;;;;;;;5.80;3.72;;;;;;;;;;6068150;23;20014;-78
2022/09/17 01:39:20;;;;;;;6.20;3.80;;;;;;;;;;6042676;23;20022;-78
2022/09/17 01:41:58;;;;;;;6.53;3.40;;;;;;;;;;6069064;23;20019;-78
2022/09/17 01:44:31;;;;;;;5.50;3.35;;;;;;;;;;6068295;23;20022;-78
2022/09/17 01:47:00;;;;;;;7.43;3.10;;;;;;;;;;6066998;23;20046;-78
2022/09/17 01:49:26;;;;;;;7.20;2.78;;;;;;;;;;6066551;23;20011;-78
2022/09/17 01:51:51;;;;;;;;;;;;;;;;;;6068807;23;20069;-78
2022/09/17 01:54:22;;;;;;;5.38;2.70;;;;;;;;;;6068027;23;19937;-78
2022/09/17 01:56:50;;;;;;;6.57;2.78;;;;;;;;;;6067195;23;20066;-78
2022/09/17 01:59:21;;;;;;;7.53;2.83;;;;;;;;;;6066714;23;20059;-78
2022/09/17 02:01:47;;;;;;;6.13;2.90;;;;;;;;;;6067247;23;20086;-78
2022/09/17 02:04:20;;;;;;;5.28;2.90;;;;;;;;;;6066786;23;20182;-78
2022/09/17 02:06:47;;;;;;;3.53;2.70;;;;;;;;;;6066470;23;20154;-77
2022/09/17 02:09:22;;;;;;;4.70;2.75;;;;;;;;;;6066974;23;20434;-78
2022/09/17 02:11:50;;;;;;;7.47;2.50;;;;;;;;;;6042684;23;20011;-78
2022/09/17 02:14:18;;;;;;;5.03;2.80;;;;;;;;;;6043019;23;20076;-77
2022/09/17 02:16:47;;;;;;;3.35;2.67;;;;;;;;;;6066152;23;20424;-77
2022/09/17 02:19:21;;;;;;;5.03;2.60;;;;;;;;;;6066327;23;20007;-78
2022/09/17 02:22:05;;;;;;;8.45;2.92;;;;;;;;;;6067764;23;20010;-78
2022/09/17 02:24:32;;;;;;;5.68;2.80;;;;;;;;;;6042785;23;20074;-78
2022/09/17 02:27:03;;;;;;;10.40;2.83;;;;;;;;;;6066464;23;20797;-79
2022/09/17 02:29:30;;;;;;;5.30;3.08;;;;;;;;;;6066582;23;20130;-78
2022/09/17 02:31:56;;;;;;;6.28;2.95;;;;;;;;;;6066609;23;20011;-78
2022/09/17 02:34:21;;;;;;;;;;;;;;;;;;6066495;23;20021;-79
2022/09/17 02:36:46;;;;;;;5.28;3.10;;;;;;;;;;6067385;23;19905;-79
2022/09/17 02:39:12;;;;;;;;;;;;;;;;;;6067843;23;20018;-78
2022/09/17 02:41:40;;;;;;;5.78;2.95;;;;;;;;;;6067401;23;19910;-78
2022/09/17 02:44:15;;;;;;;7.28;3.03;;;;;;;;;;6066259;23;20094;-79
2022/09/17 02:46:43;;;;;;;7.57;3.00;;;;;;;;;;6067230;23;20465;-79
2022/09/17 02:49:28;;;;;;;6.25;3.00;;;;;;;;;;6067069;23;20003;-77
2022/09/17 02:52:04;;;;;;;4.38;2.55;;;;;;;;;;6067314;23;20466;-77
2022/09/17 02:54:31;;;;;;;6.35;2.80;;;;;;;;;;6066045;23;20015;-77
2022/09/17 02:57:15;;;;;;;5.85;2.78;;;;;;;;;;6067132;23;20003;-78
2022/09/17 03:00:02;;;;;;;6.95;3.00;;;;;;;;;;6066210;23;20474;-77
2022/09/17 03:02:30;;;;;;;6.60;3.30;;;;;;;;;;6067343;23;20355;-78
2022/09/17 03:04:56;;;;;;;6.03;2.80;;;;;;;;;;6066095;23;20093;-77
2022/09/17 03:07:21;;;;;;;;;;;;;;;;;;6068042;23;20097;-79
2022/09/17 03:09:46;;;;;;;8.40;3.15;;;;;;;;;;6090016;23;19905;-78
2022/09/17 03:12:12;;;;;;;;;;;;;;;;;;6067736;23;20029;-80
2022/09/17 03:14:37;;;;;;;7.35;2.75;;;;;;;;;;6066947;23;19930;-78
2022/09/17 03:17:03;;;;;;;;;;;;;;;;;;6067667;23;20059;-78
2022/09/17 03:19:28;;;;;;;4.82;2.72;;;;;;;;;;6067500;23;19945;-78
2022/09/17 03:21:53;;;;;;;;;;;;;;;;;;6067311;23;20038;-77
2022/09/17 03:24:19;;;;;;;7.65;2.97;;;;;;;;;;6067056;23;19905;-78
2022/09/17 03:26:46;;;;;;;;;;;;;;;;;;6066973;23;20109;-78
2022/09/17 03:29:12;;;;;;;4.82;2.90;;;;;;;;;;6066863;23;19969;-78
2022/09/17 03:31:37;;;;;;;;;;;;;;;;;;6067347;23;20014;-78
2022/09/17 03:34:02;;;;;;;6.90;3.20;;;;;;;;;;6089842;23;19910;-78
2022/09/17 03:36:28;;;;;;;;;;;;;;;;;;6066455;23;20019;-78
2022/09/17 03:38:57;;;;;;;5.07;2.67;;;;;;;;;;6067406;23;19906;-77
2022/09/17 03:41:22;;;;;;;9.88;3.33;;;;;;;;;;6067087;23;20173;-77
2022/09/17 03:43:48;;;;;;;;;;;;;;;;;;6066476;23;20077;-77
2022/09/17 03:46:13;;;;;;;7.50;3.08;;;;;;;;;;6066998;23;19909;-78
2022/09/17 03:48:38;;;;;;;;;;;;;;;;;;6066438;23;20055;-79
2022/09/17 03:51:04;;;;;;;5.88;2.83;;;;;;;;;;6067197;23;19937;-78
2022/09/17 03:53:30;;;;;;;;;;;;;;;;;;6068603;23;20003;-80
2022/09/17 03:55:59;;;;;;;4.72;2.65;;;;;;;;;;6090013;23;19988;-77
2022/09/17 03:58:25;;;;;;;5.30;2.83;;;;;;;;;;6067012;23;20007;-77
2022/09/17 04:00:56;;;;;;;;;;;;;;;;;;6067950;23;20473;-78
2022/09/17 04:03:25;;;;;;;7.40;2.75;;;;;;;;;;6067252;23;19909;-78
2022/09/17 04:05:50;;;;;;;9.05;2.70;;;;;;;;;;6066025;23;20002;-80
2022/09/17 04:08:16;;;;;;;;;;;;;;;;;;6067754;23;20062;-77
2022/09/17 04:10:42;;;;;;;6.80;3.10;;;;;;;;;;6068718;23;19906;-78
2022/09/17 04:13:08;;;;;;;5.82;3.05;;;;;;;;;;6068674;23;20011;-77
2022/09/17 04:15:33;;;;;;;;;;;;;;;;;;6067705;23;20003;-78
2022/09/17 04:17:59;;;;;;;5.55;3.20;;;;;;;;;;6068810;23;19960;-79
2022/09/17 04:20:24;;;;;;;;;;;;;;;;;;6069726;23;20090;-77
2022/09/17 04:22:50;;;;;;;6.55;2.88;;;;;;;;;;6068734;23;19917;-77
2022/09/17 04:25:15;;;;;;;;;;;;;;;;;;6091842;23;20009;-78
2022/09/17 04:27:40;;;;;;;4.97;2.90;;;;;;;;;;6090863;23;19929;-79
2022/09/17 04:30:06;;;;;;;;;;;;;;;;;;6067680;23;20015;-79
2022/09/17 04:32:32;;;;;;;5.88;2.75;;;;;;;;;;6068936;23;19910;-81
2022/09/17 04:34:57;;;;;;;;;;;;;;;;;;6068819;23;20011;-78
2022/09/17 04:37:24;;;;;;;6.13;3.17;;;;;;;;;;6068671;23;19913;-78
2022/09/17 04:39:50;;;;;;;10.55;2.95;;;;;;;;;;6068565;23;20427;-78
2022/09/17 04:42:15;;;;;;;;;;;;;;;;;;6067667;23;20033;-77
2022/09/17 04:44:41;;;;;;;3.70;2.50;;;;;;;;;;6068691;23;19912;-77
2022/09/17 04:47:06;;;;;;;;;;;;;;;;;;6068768;23;20039;-79
2022/09/17 04:49:32;;;;;;;6.50;2.53;;;;;;;;;;6068659;23;20357;-78
2022/09/17 04:51:57;;;;;;;;;;;;;;;;;;6068307;23;20462;-78
2022/09/17 04:54:23;;;;;;;5.57;2.60;;;;;;;;;;6068337;23;19909;-79
2022/09/17 04:56:48;;;;;;;;;;;;;;;;;;6067703;23;20482;-78
2022/09/17 04:59:13;;;;;;;4.57;2.70;;;;;;;;;;6068917;23;19906;-79
2022/09/17 05:01:39;;;;;;;;;;;;;;;;;;6069157;23;20022;-78
2022/09/17 05:04:04;;;;;;;5.47;2.78;;;;;;;;;;6069347;23;19906;-79
2022/09/17 05:06:30;;;;;;;;;;;;;;;;;;6069198;23;20394;-77
2022/09/17 05:08:55;;;;;;;4.55;2.67;;;;;;;;;;6067533;23;19905;-78
2022/09/17 05:11:20;;;;;;;;;;;;;;;;;;6068457;23;20037;-78
2022/09/17 05:13:46;;;;;;;5.13;2.67;;;;;;;;;;6068063;23;20340;-79
2022/09/17 05:16:11;;;;;;;;;;;;;;;;;;6068937;23;20090;-79
2022/09/17 05:18:37;;;;;;;4.55;2.50;;;;;;;;;;6067787;23;19940;-78
2022/09/17 05:21:04;;;;;;;;;;;;;;;;;;6069204;23;20014;-78
2022/09/17 05:23:30;;;;;;;;;;;;;;;;;;6069267;23;19905;-78
2022/09/17 05:25:59;;;;;;;8.48;2.53;;;;;;;;;;6069622;23;19916;-78
2022/09/17 05:28:24;;;;;;;6.57;3.33;;;;;;;;;;6066755;23;20455;-77
2022/09/17 05:30:50;;;;;;;;;;;;;;;;;;6067182;23;20030;-78
2022/09/17 05:33:15;;;;;;;8.45;2.75;;;;;;;;;;6068032;23;19983;-78
2022/09/17 05:35:42;;;;;;;;;;;;;;;;;;6067473;23;20033;-79
2022/09/17 05:38:08;;;;;;;7.70;3.00;;;;;;;;;;6068111;23;19909;-81
2022/09/17 05:40:33;;;;;;;;;;;;;;;;;;6043729;23;20091;-77
2022/09/17 05:42:59;;;;;;;9.98;3.10;;;;;;;;;;6068518;23;19937;-78
2022/09/17 05:45:25;;;;;;;;;;;;;;;;;;6066054;23;20002;-79
2022/09/17 05:47:54;;;;;;;5.50;3.08;;;;;;;;;;6067338;23;19913;-78
2022/09/17 05:50:20;;;;;;;5.78;3.10;;;;;;;;;;6041968;23;20396;-78
2022/09/17 05:52:46;;;;;;;4.97;3.03;;;;;;;;;;6068338;23;20494;-79
2022/09/17 05:55:11;;;;;;;;;;;;;;;;;;6068483;23;20033;-79
2022/09/17 05:57:37;;;;;;;6.65;3.20;;;;;;;;;;6066801;23;19910;-78
2022/09/17 06:00:02;;;;;;;;;;;;;;;;;;6068446;23;20017;-77
2022/09/17 06:02:37;;;;;;;5.50;3.28;;;;;;;;;;6067835;23;20322;-78
2022/09/17 06:05:03;;;;;;;;;;;;;;;;;;6068603;23;20077;-78
2022/09/17 06:07:29;;;;;;;5.88;3.20;;;;;;;;;;6067803;23;19909;-78
2022/09/17 06:09:54;;;;;;;;;;;;;;;;;;6068371;23;20022;-78
2022/09/17 06:12:20;;;;;;;7.30;2.95;;;;;;;;;;6090161;23;19909;-78
2022/09/17 06:14:45;;;;;;;;;;;;;;;;;;6067128;23;20011;-79
2022/09/17 06:17:10;;;;;;;6.03;2.70;;;;;;;;;;6068003;23;19905;-79
2022/09/17 06:19:36;;;;;;;;;;;;;;;;;;6042702;23;20015;-79
2022/09/17 06:22:02;;;;;;;7.55;2.90;;;;;;;;;;6090037;23;19920;-78
2022/09/17 06:24:27;;;;;;;7.03;3.40;;;;;;;;;;6067835;23;20089;-77
2022/09/17 06:26:53;;;;;;;;;;;;;;;;;;6068169;23;20360;-77
2022/09/17 06:29:19;;;;;;;8.10;2.83;;;;;;;;;;6067322;23;20000;-78
2022/09/17 06:31:44;;;;;;;;;;;;;;;;;;6066720;23;20364;-77
2022/09/17 06:34:11;;;;;;;9.20;3.22;;;;;;;;;;6067629;23;19910;-79
2022/09/17 06:36:36;;;;;;;;;;;;;;;;;;6067798;23;20010;-77
2022/09/17 06:39:02;;;;;;;6.65;2.42;;;;;;;;;;6089924;23;20309;-77
2022/09/17 06:41:27;;;;;;;;;;;;;;;;;;6067400;23;20013;-79
2022/09/17 06:43:53;;;;;;;5.53;2.50;;;;;;;;;;6089559;23;20350;-78
2022/09/17 06:46:19;;;;;;;;;;;;;;;;;;6068303;23;20003;-77
2022/09/17 06:48:44;;;;;;;8.13;2.60;;;;;;;;;;6067553;23;19909;-77
2022/09/17 06:51:10;;;;;;;;;;;;;;;;;;6067692;23;20003;-78
2022/09/17 06:53:36;;;;;;;7.15;2.30;;;;;;;;;;6069961;23;19984;-78
2022/09/17 06:56:01;;;;;;;6.15;2.72;;;;;;;;;;6067788;23;20013;-78
2022/09/17 06:58:27;;;;;;;;;;;;;;;;;;6090405;23;20042;-77
2022/09/17 07:00:54;;;;;;;7.47;2.08;;;;;;;;;;6089986;23;20001;-78
2022/09/17 07:03:20;;;;;;;5.28;2.33;;;;;;;;;;6042299;23;20007;-78
2022/09/17 07:05:47;;;;;;;6.10;2.28;;;;;;;;;;6066468;23;20372;-78
2022/09/17 07:08:13;;;;;;;;;;;;;;;;;;6066170;23;20081;-78
2022/09/17 07:10:38;;;;;;;6.50;2.05;;;;;;;;;;6067681;23;19909;-80
2022/09/17 07:13:04;;;;;;;;;;;;;;;;;;6090190;23;20011;-78
2022/09/17 07:15:31;;;;;;;5.43;2.50;;;;;;;;;;6090184;23;19906;-81
2022/09/17 07:17:57;;;;;;;5.28;2.53;;;;;;;;;;6066377;23;20021;-82
2022/09/17 07:20:22;;;;;;;;;;;;;;;;;;6043490;23;20007;-78
2022/09/17 07:22:56;;;;;;;6.60;2.38;;;;;;;;;;6067573;23;19944;-79
2022/09/17 07:25:23;;;;;;;4.32;2.38;;;;;;;;;;6068157;23;20086;-83
2022/09/17 07:27:48;;;;;;;12.25;2.05;;;;;;;;;;6042126;23;20107;-78
2022/09/17 07:30:14;;;;;;;;;;;;;;;;;;6042711;23;20059;-78
2022/09/17 07:32:39;;;;;;;6.43;2.10;;;;;;;;;;6090295;23;19916;-78
2022/09/17 07:35:05;;;;;;;7.57;2.40;;;;;;;;;;6019032;23;20015;-78
2022/09/17 07:37:31;;;;;;;9.65;2.30;;;;;;;;;;6067740;23;20451;-78
2022/09/17 07:39:56;;;;;;;;;;;;;;;;;;6068318;23;20014;-77
2022/09/17 07:42:21;;;;;;;6.57;2.10;;;;;;;;;;6091953;23;19905;-79
2022/09/17 07:44:47;;;;;;;6.60;2.25;;;;;;;;;;6068137;23;20014;-78
2022/09/17 07:47:12;;;;;;;5.32;1.77;;;;;;;;;;6067407;23;20035;-78
2022/09/17 07:49:38;;;;;;;;;;;;;;;;;;6044311;23;20079;-78
2022/09/17 07:52:05;;;;;;;7.18;2.30;;;;;;;;;;6091859;23;20023;-77
2022/09/17 07:54:35;;;;;;;7.82;2.03;;;;;;;;;;6069413;23;20049;-79
2022/09/17 07:57:01;;;;;;;8.75;2.83;;;;;;;;;;6070049;23;20465;-78
2022/09/17 07:59:26;;;;;;;6.28;2.38;;;;;;;;;;6044071;23;20090;-78
2022/09/17 08:01:52;;;;;;;4.25;1.98;;;;;;;;;;6091909;23;20097;-79
2022/09/17 08:04:18;;;;;;;9.05;2.28;;;;;;;;;;6044247;23;20471;-79
2022/09/17 08:06:47;;;;;;;6.18;2.45;;;;;;;;;;6044182;23;20097;-79
2022/09/17 08:09:14;;;;;;;6.60;1.90;;;;;;;;;;6069471;23;20426;-78
2022/09/17 08:11:39;;;;;;;4.90;1.70;;;;;;;;;;6044353;23;20014;-79
2022/09/17 08:14:05;;;;;;;5.90;1.80;;;;;;;;;;6068116;23;20026;-80
2022/09/17 08:16:30;;;;;;;4.85;1.80;;;;;;;;;;6067976;23;20021;-78
2022/09/17 08:18:56;;;;;;;5.60;1.52;;;;;;;;;;6069525;23;20339;-79
2022/09/17 08:21:21;;;;;;;7.90;1.40;;;;;;;;;;6068432;23;20011;-80
2022/09/17 08:23:47;;;;;;;5.43;1.65;;;;;;;;;;6070196;23;20459;-80
2022/09/17 08:26:13;;;;;;;5.00;1.40;;;;;;;;;;6070049;23;20016;-79
2022/09/17 08:28:39;;;;;;;6.13;1.65;;;;;;;;;;6069259;23;20025;-79
2022/09/17 08:31:05;;;;;;;4.03;1.20;;;;;;;;;;6044807;23;20086;-79
2022/09/17 08:33:31;;;;;;;5.40;1.58;;;;;;;;;;6044775;23;20030;-80
2022/09/17 08:36:00;;;;;;;4.82;1.50;;;;;;;;;;6092663;23;20395;-80
2022/09/17 08:38:26;;;;;;;3.42;1.30;;;;;;;;;;6067942;23;20006;-81
2022/09/17 08:40:55;;;;;;;5.07;1.40;;;;;;;;;;6044202;23;20351;-78
2022/09/17 08:43:21;;;;;;;6.22;1.30;;;;;;;;;;6070046;23;20015;-78
2022/09/17 08:45:51;;;;;;;7.25;1.50;;;;;;;;;;6044118;23;20014;-81
2022/09/17 08:48:18;;;;;;;5.47;1.25;;;;;;;;;;6044513;23;20062;-78
2022/09/17 08:50:43;;;;;;;3.20;1.10;;;;;;;;;;6067890;23;20011;-84
2022/09/17 08:53:14;;;;;;;4.68;1.60;;;;;;;;;;6044438;23;20538;-81
2022/09/17 08:55:39;;;;;;;3.33;1.30;;;;;;;;;;6067364;23;20351;-78
2022/09/17 08:58:23;;;;;;;6.03;1.50;;;;;;;;;;6068964;23;20003;-79
2022/09/17 09:00:54;;;;;;;2.80;0.95;;;;;;;;;;6067476;23;20379;-79
2022/09/17 09:03:38;;;;;;;5.32;1.48;;;;;;;;;;6069158;23;20018;-79
2022/09/17 09:06:04;;;;;;;6.47;1.70;;;;;;;;;;6069244;23;20025;-78
2022/09/17 09:08:29;;;;;;;5.32;1.30;;;;;;;;;;6067823;23;20066;-78
2022/09/17 09:10:59;;;;;;;4.53;1.70;;;;;;;;;;6067990;23;20035;-79
2022/09/17 09:13:27;;;;;;;3.85;1.67;;;;;;;;;;6067823;23;20107;-79
2022/09/17 09:16:00;;;;;;;7.25;1.85;;;;;;;;;;6044236;23;20018;-78
2022/09/17 09:18:26;;;;;;;4.40;1.20;;;;;;;;;;6067307;23;20015;-79
2022/09/17 09:20:54;;;;;;;2.67;1.30;;;;;;;;;;6043780;23;20013;-81
2022/09/17 09:23:26;;;;;;;6.25;1.67;;;;;;;;;;6044006;23;20038;-77
2022/09/17 09:26:10;;;;;;;5.13;1.08;;;;;;;;;;6067727;23;20019;-78
2022/09/17 09:28:51;;;;;;;5.10;1.40;;;;;;;;;;6068950;23;20027;-78
2022/09/17 09:31:30;;;;;;;6.47;1.45;;;;;;;;;;6067425;23;20014;-79
2022/09/17 09:33:55;;;;;;;4.93;1.40;;;;;;;;;;6067842;23;20033;-79
2022/09/17 09:36:21;;;;;;;6.70;1.55;;;;;;;;;;6043938;23;19998;-79
2022/09/17 09:38:49;;;;;;;6.32;1.50;;;;;;;;;;6067565;23;20498;-79
2022/09/17 09:41:16;;;;;;;5.05;1.40;;;;;;;;;;6068025;23;20003;-79
2022/09/17 09:43:52;;;;;;;4.70;1.38;;;;;;;;;;6067401;23;20011;-79
2022/09/17 09:46:28;;;;;;;5.35;1.30;;;;;;;;;;6067369;23;20015;-79
2022/09/17 09:49:08;;;;;;;5.68;1.50;;;;;;;;;;6069088;23;20019;-79
2022/09/17 09:51:52;;;;;;;7.45;1.67;;;;;;;;;;6068707;23;20095;-79
2022/09/17 09:54:24;;;;;;;6.22;0.98;;;;;;;;;;6067138;23;20049;-79
2022/09/17 09:56:54;;;;;;;5.80;1.75;;;;;;;;;;6043217;23;20026;-79
2022/09/17 09:59:20;;;;;;;4.18;1.13;;;;;;;;;;6043792;23;20010;-78
2022/09/17 10:01:45;;;;;;;4.07;1.35;;;;;;;;;;6069407;23;20021;-78
2022/09/17 10:04:18;;;;;;;4.32;1.08;;;;;;;;;;6043465;23;20411;-77
2022/09/17 10:06:44;;;;;;;6.10;1.35;;;;;;;;;;6043310;23;20097;-79
2022/09/17 10:09:11;;;;;;;5.32;1.20;;;;;;;;;;6068061;23;20003;-79
2022/09/17 10:11:38;;;;;;;7.38;1.40;;;;;;;;;;6043380;23;20018;-78
2022/09/17 10:14:25;;;;;;;4.97;1.30;;;;;;;;;;6043847;23;20007;-78
2022/09/17 10:17:10;;;;;;;3.35;1.00;;;;;;;;;;6066966;23;20046;-79
2022/09/17 10:19:36;;;;;;;5.03;1.48;;;;;;;;;;6068661;23;20343;-80
2022/09/17 10:22:16;;;;;;;4.35;1.25;;;;;;;;;;6070028;23;20014;-79
2022/09/17 10:24:42;;;;;;;3.17;1.30;;;;;;;;;;6068371;23;20355;-79
2022/09/17 10:27:11;;;;;;;5.10;1.63;;;;;;;;;;6068033;23;20022;-81
2022/09/17 10:29:36;;;;;;;4.63;1.42;;;;;;;;;;6067678;23;20010;-80
2022/09/17 10:32:05;;;;;;;3.75;1.17;;;;;;;;;;6068592;23;20067;-78
2022/09/17 10:34:31;;;;;;;6.70;1.30;;;;;;;;;;6068659;23;20011;-79
2022/09/17 10:36:57;;;;;;;4.80;1.17;;;;;;;;;;6068396;23;20486;-79
2022/09/17 10:39:25;;;;;;;4.28;1.27;;;;;;;;;;6068156;23;20018;-78
2022/09/17 10:41:54;;;;;;;3.47;1.25;;;;;;;;;;6068654;23;20029;-79
2022/09/17 10:44:20;;;;;;;4.18;1.20;;;;;;;;;;6044177;23;20015;-79
2022/09/17 10:46:46;;;;;;;4.30;1.30;;;;;;;;;;6069013;23;20014;-80
2022/09/17 10:49:31;;;;;;;2.85;1.08;;;;;;;;;;6067777;23;20011;-80
2022/09/17 10:52:04;;;;;;;6.53;1.20;;;;;;;;;;6069666;23;20014;-80
2022/09/17 10:54:36;;;;;;;6.05;1.85;;;;;;;;;;6068077;23;20010;-79
2022/09/17 10:57:01;;;;;;;6.60;1.42;;;;;;;;;;6067621;23;20023;-79
2022/09/17 10:59:52;;;;;;;6.75;3.15;;;;;;;;;;6069044;23;20006;-79
2022/09/17 11:02:25;;;;;;;5.70;1.55;;;;;;;;;;6067959;23;20039;-79
2022/09/17 11:04:58;;;;;;;8.18;3.40;;;;;;;;;;6069602;23;20019;-80
2022/09/17 11:07:27;;;;;;;5.18;2.40;;;;;;;;;;6068261;23;20474;-80
2022/09/17 11:10:02;;;;;;;3.60;1.50;;;;;;;;;;6067864;23;20067;-79
2022/09/17 11:12:30;;;;;;;4.38;1.50;;;;;;;;;;6068909;23;20014;-79
2022/09/17 11:15:14;;;;;;;4.80;1.58;;;;;;;;;;6067670;23;19999;-79
2022/09/17 11:17:43;;;;;;;5.00;1.50;;;;;;;;;;6069391;23;20070;-79
2022/09/17 11:20:27;;;;;;;6.95;2.17;;;;;;;;;;6045377;23;20013;-79
2022/09/17 11:23:16;;;;;;;4.75;1.63;;;;;;;;;;6068971;23;20018;-79
2022/09/17 11:25:42;;;;;;;5.53;1.33;;;;;;;;;;6017116;23;20015;-79
2022/09/17 11:28:17;;;;;;;5.25;1.65;;;;;;;;;;6070575;23;20022;-80
2022/09/17 11:31:06;;;;;;;5.50;2.30;;;;;;;;;;6070391;23;20018;-80
2022/09/17 11:33:44;;;;;;;7.68;1.70;;;;;;;;;;6054236;23;20061;-79
2022/09/17 11:36:14;;;;;;;5.28;1.52;;;;;;;;;;6045882;23;20031;-79
2022/09/17 11:38:44;;;;;;;4.18;1.40;;;;;;;;;;6070973;23;20015;-78
2022/09/17 11:41:10;;;;;;;3.83;1.27;;;;;;;;;;6071303;23;20035;-81
2022/09/17 11:43:36;;;;;;;6.20;1.50;;;;;;;;;;6069770;23;20406;-78
2022/09/17 11:46:13;;;;;;;4.93;2.17;;;;;;;;;;6071079;23;20015;-84
2022/09/17 11:48:43;;;;;;;4.35;1.48;;;;;;;;;;6058145;23;20074;-84
2022/09/17 11:51:23;;;;;;;4.40;1.50;;;;;;;;;;6059156;23;20045;-85
2022/09/17 11:53:54;;;;;;;4.70;1.67;;;;;;;;;;6056597;23;20011;-84
2022/09/17 11:56:21;;;;;;;7.22;2.33;;;;;;;;;;6032866;23;20006;-84
2022/09/17 11:58:49;;;;;;;3.92;1.42;;;;;;;;;;6081339;23;20014;-85
2022/09/17 12:01:36;;;;;;;3.28;1.30;;;;;;;;;;6080683;23;20025;-84
2022/09/17 12:04:13;;;;;;;4.57;1.60;;;;;;;;;;6037278;23;20534;-83
2022/09/17 12:06:41;;;;;;;3.40;1.42;;;;;;;;;;6057671;23;20070;-85
2022/09/17 12:09:10;;;;;;;4.57;1.50;;;;;;;;;;6056454;23;20003;-83
2022/09/17 12:11:59;;;;;;;5.75;1.80;;;;;;;;;;6078570;23;20070;-83
2022/09/17 12:14:44;;;;;;;4.28;1.55;;;;;;;;;;6041094;23;20011;-84
2022/09/17 12:17:12;;;;;;;3.83;1.48;;;;;;;;;;6057589;23;20010;-85
2022/09/17 12:19:43;;;;;;;5.93;1.30;;;;;;;;;;6057592;23;20006;-83
2022/09/17 12:22:09;;;;;;;7.40;1.50;;;;;;;;;;6082244;23;20018;-85
2022/09/17 12:24:35;;;;;;;6.95;1.80;;;;;;;;;;6056826;23;20038;-84
2022/09/17 12:27:00;;;;;;;7.35;2.08;;;;;;;;;;6079465;23;20029;-84
2022/09/17 12:29:26;;;;;;;8.75;1.95;;;;;;;;;;6078685;23;20010;-83
2022/09/17 12:32:16;;;;;;;8.32;1.90;;;;;;;;;;6079978;23;20011;-84
2022/09/17 12:35:00;;;;;;;7.30;2.15;;;;;;;;;;6079621;23;20011;-84
2022/09/17 12:37:27;;;;;;;6.45;1.80;;;;;;;;;;6081833;23;20021;-83
2022/09/17 12:39:52;;;;;;;7.90;2.15;;;;;;;;;;6079030;23;20010;-83
2022/09/17 12:42:27;;;;;;;5.70;1.77;;;;;;;;;;6080307;23;20019;-83
2022/09/17 12:44:59;;;;;;;8.75;2.20;;;;;;;;;;6080446;23;20498;-84
2022/09/17 12:47:42;;;;;;;7.68;2.17;;;;;;;;;;6078332;23;20018;-84
2022/09/17 12:50:07;;;;;;;7.97;2.05;;;;;;;;;;6059740;23;20011;-83
2022/09/17 12:55:26;;;;;;;7.65;2.08;;;;;;;;;;6236544;23;20515;-85
2022/09/17 12:57:59;;;;;;;6.30;1.92;;;;;;;;;;6186155;23;20013;-86
2022/09/17 13:00:25;;;;;;;5.22;1.90;;;;;;;;;;6176200;23;20150;-84
2022/09/17 13:03:01;;;;;;;4.72;1.83;;;;;;;;;;6176817;23;20008;-84
2022/09/17 13:05:45;;;;;;;6.72;2.15;;;;;;;;;;6202554;23;20024;-84
2022/09/17 13:08:29;;;;;;;6.85;1.77;;;;;;;;;;6176961;23;20013;-84
2022/09/17 13:10:55;;;;;;;9.35;2.17;;;;;;;;;;6203724;23;20399;-85
2022/09/17 13:13:40;;;;;;;10.35;1.90;;;;;;;;;;6177442;23;20020;-85
2022/09/17 13:16:26;;;;;;;5.80;2.03;;;;;;;;;;6203296;23;20456;-85
2022/09/17 13:19:11;;;;;;;6.18;1.77;;;;;;;;;;6168000;23;20376;-84
2022/09/17 13:21:55;;;;;;;12.18;2.20;;;;;;;;;;6175712;23;20072;-83
2022/09/17 13:24:23;;;;;;;10.02;2.33;;;;;;;;;;6204255;23;20008;-84
2022/09/17 13:26:51;;;;;;;11.32;2.00;;;;;;;;;;6229184;23;20455;-86
2022/09/17 13:29:35;;;;;;;8.45;1.98;;;;;;;;;;6177335;23;20216;-84
2022/09/17 13:32:01;;;;;;;4.65;1.42;;;;;;;;;;6179032;23;20081;-85
2022/09/17 13:34:28;;;;;;;6.78;1.70;;;;;;;;;;6156117;23;20001;-84
2022/09/17 13:36:54;;;;;;;4.22;1.73;;;;;;;;;;6181612;23;20058;-83
2022/09/17 13:39:43;;;;;;;7.22;1.80;;;;;;;;;;6179078;23;20008;-84
2022/09/17 13:42:10;;;;;;;5.00;1.73;;;;;;;;;;6198116;23;20011;-84
2022/09/17 13:44:38;;;;;;;5.00;1.73;;;;;;;;;;6180928;23;19997;-84
2022/09/17 13:47:16;;;;;;;7.65;1.90;;;;;;;;;;6207456;23;20040;-84
2022/09/17 13:49:45;;;;;;;10.65;1.90;;;;;;;;;;6232026;23;20016;-85
2022/09/17 13:52:11;;;;;;;5.47;1.80;;;;;;;;;;6178939;23;20009;-84
2022/09/17 13:54:38;;;;;;;5.18;1.70;;;;;;;;;;6178284;23;20031;-84
2022/09/17 13:57:11;;;;;;;6.30;2.10;;;;;;;;;;6177208;23;20082;-84
2022/09/17 13:59:36;;;;;;;5.05;1.52;;;;;;;;;;6180721;23;20167;-84
2022/09/17 14:02:14;;;;;;;3.85;1.70;;;;;;;;;;6177787;23;20154;-85
2022/09/17 14:04:40;;;;;;;6.50;2.15;;;;;;;;;;6207493;23;20012;-84
2022/09/17 14:07:26;;;;;;;4.95;1.55;;;;;;;;;;6180971;23;20035;-85
2022/09/17 14:09:51;;;;;;;6.03;1.60;;;;;;;;;;6202226;23;20012;-84
2022/09/17 14:12:47;;;;;;;3.90;1.60;;;;;;;;;;6204266;23;20490;-83
2022/09/17 14:15:31;;;;;;;3.88;1.50;;;;;;;;;;6184470;23;20483;-85
2022/09/17 14:17:57;;;;;;;6.25;1.83;;;;;;;;;;6178512;23;20016;-84
2022/09/17 14:20:23;;;;;;;5.50;1.52;;;;;;;;;;6180099;23;20027;-84
2022/09/17 14:23:01;;;;;;;4.55;2.10;;;;;;;;;;6205314;23;20016;-85
2022/09/17 14:25:33;;;;;;;4.32;1.40;;;;;;;;;;6181462;23;20071;-85
2022/09/17 14:27:59;;;;;;;7.00;1.70;;;;;;;;;;6204860;23;20017;-84
2022/09/17 14:30:28;;;;;;;5.15;1.83;;;;;;;;;;6179209;23;20076;-84
2022/09/17 14:33:00;;;;;;;4.07;1.85;;;;;;;;;;6177368;23;20047;-83
2022/09/17 14:35:28;;;;;;;5.50;1.90;;;;;;;;;;6202049;23;20008;-86
2022/09/17 14:37:58;;;;;;;4.93;1.60;;;;;;;;;;6175851;23;20028;-84
2022/09/17 14:40:23;;;;;;;4.18;1.80;;;;;;;;;;6176490;23;20012;-85
2022/09/17 14:42:50;;;;;;;4.47;1.70;;;;;;;;;;6175181;23;20004;-84
2022/09/17 14:45:18;;;;;;;6.07;2.10;;;;;;;;;;6175752;23;20016;-84
2022/09/17 14:47:43;;;;;;;7.30;2.25;;;;;;;;;;6200739;23;20015;-85
2022/09/17 14:50:25;;;;;;;7.38;1.90;;;;;;;;;;6174653;23;20344;-84
2022/09/17 14:52:51;;;;;;;5.15;1.70;;;;;;;;;;6200393;23;20019;-85
2022/09/17 14:55:17;;;;;;;5.72;1.85;;;;;;;;;;6177998;23;20079;-84
2022/09/17 14:58:03;;;;;;;5.13;1.88;;;;;;;;;;6177667;23;20104;-84
2022/09/17 15:00:33;;;;;;;7.18;2.13;;;;;;;;;;6202028;23;20462;-84
2022/09/17 15:02:58;;;;;;;4.50;2.25;;;;;;;;;;6154050;23;20007;-85
2022/09/17 15:05:25;;;;;;;4.90;1.98;;;;;;;;;;6204096;23;20016;-85
2022/09/17 15:08:04;;;;;;;4.50;2.40;;;;;;;;;;6202571;23;20047;-83
2022/09/17 15:10:30;;;;;;;9.95;3.60;;;;;;;;;;6201243;23;20016;-84
2022/09/17 15:12:57;;;;;;;9.85;3.85;;;;;;;;;;6177446;23;19997;-83
2022/09/17 15:15:23;;;;;;;12.07;3.88;;;;;;;;;;6174617;23;20013;-83
2022/09/17 15:17:49;;;;;;;7.90;3.80;;;;;;;;;;6149757;23;20352;-84